Time;durP1;ratioP1;P1;durP2;ratioP2;P2;SDS_P1;SDS_P2;PMS_P1;PMS_P2;Temp;Humidity;BMP_temperature;BMP_pressure;BME280_temperature;BME280_humidity;BME280_pressure;Samples;Min_cycle;Max_cycle;Signal;HPM_P1;HPM_P2
2023/11/01 09:44:09;;;;;;;0.93;0.73;;;;;;;14.64;100.00;99031.47;6200472;23;20474;-79
2023/11/01 09:46:38;;;;;;;0.60;0.60;;;;;;;14.60;100.00;99033.06;6131434;23;20266;-80
2023/11/01 09:49:06;;;;;;;1.20;0.80;;;;;;;14.62;100.00;99042.50;6156207;23;20165;-81
2023/11/01 09:51:38;;;;;;;0.60;0.60;;;;;;;14.67;100.00;99029.06;6081943;23;20452;-81
2023/11/01 09:54:14;;;;;;;0.50;0.50;;;;;;;14.73;100.00;99029.91;6155742;23;20169;-81
2023/11/01 09:56:45;;;;;;;0.40;0.40;;;;;;;14.76;100.00;99022.09;6154546;23;20151;-81
2023/11/01 09:59:14;;;;;;;0.57;0.57;;;;;;;14.90;100.00;99025.97;6155110;23;20194;-82
2023/11/01 10:01:46;;;;;;;0.83;0.73;;;;;;;14.94;100.00;99010.06;6155334;23;20202;-81
2023/11/01 10:04:15;;;;;;;1.77;0.80;;;;;;;15.02;100.00;99014.16;6155663;23;20230;-83
2023/11/01 10:06:44;;;;;;;0.70;0.40;;;;;;;15.15;100.00;99010.97;6155210;23;20194;-82
2023/11/01 10:09:13;;;;;;;3.40;0.67;;;;;;;15.21;100.00;98991.03;6105925;23;20163;-82
2023/11/01 10:11:42;;;;;;;0.43;0.43;;;;;;;15.32;100.00;98981.88;6128280;23;20217;-83
2023/11/01 10:14:11;;;;;;;1.03;0.50;;;;;;;15.35;100.00;98979.44;6105214;23;20183;-83
2023/11/01 10:16:39;;;;;;;1.43;0.40;;;;;;;15.44;100.00;98980.53;6129645;23;20171;-82
2023/11/01 10:19:07;;;;;;;0.93;0.40;;;;;;;15.55;100.00;98976.00;6155011;23;20649;-85
2023/11/01 10:21:36;;;;;;;0.50;0.50;;;;;;;15.70;100.00;98972.53;6104999;23;20171;-82
2023/11/01 10:24:07;;;;;;;1.20;0.60;;;;;;;15.81;100.00;98976.88;6105430;23;20159;-82
2023/11/01 10:26:35;;;;;;;0.40;0.30;;;;;;;15.95;100.00;98977.16;6155481;23;20246;-84
2023/11/01 10:29:03;;;;;;;0.50;0.50;;;;;;;16.07;100.00;98972.28;6129035;23;20171;-83
2023/11/01 10:31:32;;;;;;;0.57;0.30;;;;;;;16.08;100.00;98968.50;6129737;23;20217;-83
2023/11/01 10:34:13;;;;;;;0.30;0.30;;;;;;;16.10;100.00;98955.50;6155281;23;20245;-84
2023/11/01 10:36:55;;;;;;;0.70;0.50;;;;;;;16.16;100.00;98944.44;6129648;23;20206;-82
2023/11/01 10:39:23;;;;;;;0.47;0.40;;;;;;;16.20;100.00;98942.00;6155062;23;20167;-83
2023/11/01 10:41:52;;;;;;;0.50;0.40;;;;;;;16.21;100.00;98936.31;6104296;23;20575;-83
2023/11/01 10:44:21;;;;;;;0.17;0.17;;;;;;;16.35;100.00;98927.63;6128989;23;20167;-84
2023/11/01 10:46:49;;;;;;;0.30;0.30;;;;;;;16.56;100.00;98915.69;6154884;23;20175;-86
2023/11/01 10:49:19;;;;;;;0.40;0.30;;;;;;;16.62;100.00;98909.19;6104986;23;20581;-85
2023/11/01 10:51:48;;;;;;;0.40;0.30;;;;;;;16.75;100.00;98911.31;6154731;23;20190;-84
2023/11/01 10:54:17;;;;;;;0.40;0.40;;;;;;;16.84;100.00;98900.75;6105171;23;20171;-84
2023/11/01 10:56:46;;;;;;;0.33;0.23;;;;;;;16.94;100.00;98893.38;6128990;23;20171;-83
2023/11/01 10:59:32;;;;;;;1.50;0.40;;;;;;;17.11;100.00;98893.03;6104726;23;20177;-83
2023/11/01 11:02:21;;;;;;;2.77;0.80;;;;;;;17.25;100.00;98902.13;6129778;23;20151;-85
2023/11/01 11:05:02;;;;;;;0.80;0.40;;;;;;;17.31;100.00;98890.16;6129363;23;20217;-84
2023/11/01 11:07:37;;;;;;;0.20;0.20;;;;;;;17.29;100.00;98884.25;6128560;23;20192;-82
2023/11/01 11:10:32;;;;;;;0.67;0.67;;;;;;;17.32;100.00;98880.16;6129444;23;20155;-82
2023/11/01 11:13:10;;;;;;;2.83;0.37;;;;;;;17.32;99.75;98880.97;6128110;23;20255;-85
2023/11/01 11:15:47;;;;;;;0.10;0.10;;;;;;;17.37;99.71;98878.22;6154694;23;20676;-83
2023/11/01 11:18:18;;;;;;;4.27;0.90;;;;;;;17.43;95.54;98868.16;6154878;23;20236;-83
2023/11/01 11:20:50;;;;;;;0.73;0.40;;;;;;;17.50;93.45;98872.16;6154649;23;20226;-82
2023/11/01 11:23:35;;;;;;;0.93;0.40;;;;;;;17.41;89.86;98854.91;6154584;23;20183;-83
2023/11/01 11:26:04;;;;;;;0.60;0.20;;;;;;;17.48;91.93;98855.41;6128250;23;20174;-82
2023/11/01 11:28:31;;;;;;;3.60;0.50;;;;;;;17.53;89.99;98857.25;6154644;23;20159;-84
2023/11/01 11:31:07;;;;;;;5.13;1.13;;;;;;;17.58;89.28;98855.34;6128450;23;20259;-84
2023/11/01 11:33:58;;;;;;;3.07;0.50;;;;;;;17.64;88.88;98847.19;6154955;23;20155;-83
2023/11/01 11:36:29;;;;;;;2.00;0.37;;;;;;;17.64;90.23;98847.19;6154379;23;20175;-82
2023/11/01 11:39:01;;;;;;;0.20;0.20;;;;;;;17.68;90.80;98837.41;6154479;23;20197;-82
2023/11/01 11:41:38;;;;;;;0.47;0.27;;;;;;;17.74;92.07;98838.94;6104895;23;20245;-83
2023/11/01 11:44:08;;;;;;;1.30;0.23;;;;;;;17.79;93.29;98828.88;6128266;23;20179;-84
2023/11/01 11:46:44;;;;;;;0.30;0.20;;;;;;;17.89;88.35;98822.56;6128381;23;20200;-83
2023/11/01 11:49:21;;;;;;;1.27;0.20;;;;;;;17.82;88.72;98816.69;6127848;23;20180;-84
2023/11/01 11:51:54;;;;;;;0.20;0.20;;;;;;;17.84;90.95;98809.88;6153942;23;20172;-83
2023/11/01 11:54:27;;;;;;;0.83;0.20;;;;;;;17.90;91.73;98808.72;6128323;23;20178;-85
2023/11/01 11:56:56;;;;;;;0.27;0.20;;;;;;;17.87;88.41;98800.38;6124930;23;20175;-84
2023/11/01 11:59:28;;;;;;;0.20;0.20;;;;;;;17.86;88.77;98802.28;6152419;23;20153;-83
2023/11/01 12:02:10;;;;;;;1.60;0.20;;;;;;;17.89;87.96;98798.97;6153526;23;20170;-82
2023/11/01 12:04:39;;;;;;;0.20;0.20;;;;;;;17.93;87.28;98793.78;6128347;23;20171;-82
2023/11/01 12:07:18;;;;;;;0.37;0.20;;;;;;;17.94;86.85;98790.78;6127787;23;20186;-83
2023/11/01 12:09:51;;;;;;;1.50;0.30;;;;;;;17.91;86.28;98783.25;6128154;23;20203;-83
2023/11/01 12:12:20;;;;;;;1.80;0.50;;;;;;;17.81;85.22;98780.63;6153989;23;20167;-86
2023/11/01 12:15:00;;;;;;;1.23;0.97;;;;;;;17.85;87.07;98772.75;6104148;23;20202;-83
2023/11/01 12:17:33;;;;;;;1.33;0.27;;;;;;;17.87;86.52;98765.91;6154081;23;20167;-83
2023/11/01 12:20:03;;;;;;;0.30;0.30;;;;;;;17.87;87.70;98765.91;6154071;23;20160;-83
2023/11/01 12:22:44;;;;;;;0.30;0.30;;;;;;;17.90;86.91;98762.66;6104353;23;20250;-82
2023/11/01 12:25:14;;;;;;;1.47;0.43;;;;;;;17.94;85.66;98758.28;6128253;23;20167;-82
2023/11/01 12:27:44;;;;;;;0.40;0.40;;;;;;;17.96;88.14;98752.56;6128136;23;20207;-82
2023/11/01 12:30:21;;;;;;;1.70;0.47;;;;;;;17.89;86.46;98733.94;6154303;23;20163;-82
2023/11/01 12:32:49;;;;;;;0.20;0.20;;;;;;;17.86;84.44;98736.44;6127919;23;20173;-82
2023/11/01 12:35:17;;;;;;;0.30;0.30;;;;;;;17.84;82.78;98739.41;6154312;23;20179;-87
2023/11/01 12:37:46;;;;;;;0.20;0.20;;;;;;;17.73;82.79;98723.56;6153606;23;20172;-82
2023/11/01 12:40:15;;;;;;;0.70;0.60;;;;;;;17.72;84.22;98724.66;6153872;23;20164;-82
2023/11/01 12:42:46;;;;;;;0.50;0.50;;;;;;;17.60;84.17;98712.31;6153272;23;20179;-82
2023/11/01 12:45:14;;;;;;;0.40;0.40;;;;;;;17.69;86.57;98717.91;6153349;23;20219;-82
2023/11/01 12:47:50;;;;;;;0.20;0.20;;;;;;;17.75;85.68;98713.25;6128963;23;20195;-83
2023/11/01 12:50:29;;;;;;;0.47;0.30;;;;;;;17.67;87.22;98706.56;6155917;23;20155;-82
2023/11/01 12:53:00;;;;;;;0.40;0.40;;;;;;;17.63;88.91;98710.13;6107044;23;20162;-83
2023/11/01 12:55:31;;;;;;;0.43;0.43;;;;;;;17.51;91.77;98708.59;6154382;23;20681;-82
2023/11/01 12:57:59;;;;;;;0.37;0.37;;;;;;;17.55;95.29;98706.09;6130065;23;20193;-82
2023/11/01 13:00:30;;;;;;;0.30;0.30;;;;;;;17.68;96.81;98696.53;6129134;23;20249;-84
2023/11/01 13:03:01;;;;;;;1.43;0.50;;;;;;;17.58;98.58;98694.72;6153545;23;20171;-83
2023/11/01 13:05:29;;;;;;;0.70;0.40;;;;;;;17.52;98.80;98690.44;6129066;23;20184;-85
2023/11/01 13:07:58;;;;;;;1.17;0.40;;;;;;;17.46;100.00;98676.16;6130324;23;20255;-83
2023/11/01 13:10:26;;;;;;;0.40;0.40;;;;;;;17.54;100.00;98667.38;6104485;23;20221;-83
2023/11/01 13:12:54;;;;;;;0.40;0.40;;;;;;;17.50;100.00;98669.06;6129537;23;20175;-84
2023/11/01 13:15:26;;;;;;;1.83;0.50;;;;;;;17.55;100.00;98668.19;6130081;23;20169;-84
2023/11/01 13:17:57;;;;;;;0.60;0.40;;;;;;;17.47;100.00;98674.25;6105652;23;20652;-83
2023/11/01 13:20:24;;;;;;;1.07;0.30;;;;;;;17.45;100.00;98665.63;6107245;23;20152;-84
2023/11/01 13:22:54;;;;;;;0.40;0.40;;;;;;;17.35;100.00;98663.81;6156088;23;20671;-83
2023/11/01 13:25:22;;;;;;;1.10;0.50;;;;;;;17.37;100.00;98655.41;6156299;23;20161;-83
2023/11/01 13:27:50;;;;;;;0.50;0.50;;;;;;;17.23;100.00;98655.28;6106094;23;20185;-86
2023/11/01 13:30:17;;;;;;;0.90;0.60;;;;;;;17.23;100.00;98649.84;6155886;23;20164;-86
2023/11/01 13:32:50;;;;;;;1.40;0.50;;;;;;;17.16;100.00;98646.69;6155766;23;20164;-84
2023/11/01 13:35:22;;;;;;;0.40;0.40;;;;;;;17.12;100.00;98634.84;6155507;23;20199;-87
2023/11/01 13:37:51;;;;;;;0.73;0.40;;;;;;;17.03;100.00;98631.91;6155105;23;20163;-86
2023/11/01 13:40:18;;;;;;;1.60;0.40;;;;;;;17.02;100.00;98635.72;6155641;23;20196;-88
2023/11/01 13:42:50;;;;;;;0.40;0.40;;;;;;;16.88;100.00;98633.97;6106587;23;20634;-86
2023/11/01 13:45:19;;;;;;;0.30;0.30;;;;;;;16.95;100.00;98637.13;6138336;23;20198;-87
2023/11/01 13:47:49;;;;;;;0.43;0.40;;;;;;;16.77;100.00;98629.72;6153435;23;20192;-87
2023/11/01 13:50:17;;;;;;;1.43;0.50;;;;;;;16.71;100.00;98627.06;6154707;23;20622;-84
2023/11/01 13:52:46;;;;;;;0.30;0.30;;;;;;;16.60;100.00;98622.84;6155464;23;20172;-84
2023/11/01 13:55:18;;;;;;;0.30;0.30;;;;;;;16.53;100.00;98614.22;6130347;23;20175;-83
2023/11/01 13:57:46;;;;;;;0.77;0.40;;;;;;;16.44;100.00;98625.91;6154297;23;20226;-83
2023/11/01 14:00:14;;;;;;;0.40;0.40;;;;;;;16.41;100.00;98618.38;6153160;23;20701;-83
2023/11/01 14:02:43;;;;;;;0.47;0.43;;;;;;;16.43;100.00;98621.56;6154417;23;20147;-83
2023/11/01 14:05:13;;;;;;;0.43;0.43;;;;;;;16.41;100.00;98613.78;6103263;23;20610;-82
2023/11/01 14:07:41;;;;;;;0.57;0.50;;;;;;;16.36;100.00;98618.41;6151425;23;20193;-84
2023/11/01 14:10:09;;;;;;;0.87;0.70;;;;;;;16.33;100.00;98614.34;6155041;23;20180;-82
2023/11/01 14:12:39;;;;;;;1.57;0.70;;;;;;;16.20;100.00;98612.28;6155138;23;20179;-83
2023/11/01 14:15:08;;;;;;;0.87;0.87;;;;;;;16.09;100.00;98608.84;6155244;23;20190;-86
2023/11/01 14:17:36;;;;;;;1.70;0.60;;;;;;;15.98;100.00;98614.59;6155040;23;20688;-84
2023/11/01 14:20:06;;;;;;;1.77;0.70;;;;;;;15.93;100.00;98609.22;6155261;23;20165;-85
2023/11/01 14:22:43;;;;;;;0.67;0.67;;;;;;;15.80;100.00;98606.06;6153554;23;20171;-85
2023/11/01 14:25:14;;;;;;;0.77;0.57;;;;;;;15.78;100.00;98600.09;6130013;23;20621;-84
2023/11/01 14:27:49;;;;;;;0.60;0.50;;;;;;;15.70;100.00;98595.28;6154850;23;20234;-85
2023/11/01 14:30:17;;;;;;;1.30;0.60;;;;;;;15.64;100.00;98598.28;6152651;23;20178;-84
2023/11/01 14:32:45;;;;;;;2.17;0.80;;;;;;;15.45;100.00;98598.06;6153608;23;20167;-83
2023/11/01 14:35:16;;;;;;;2.07;1.23;;;;;;;15.34;100.00;98589.22;6155293;23;20164;-83
2023/11/01 14:37:44;;;;;;;2.17;1.60;;;;;;;15.21;100.00;98578.19;6155118;23;20163;-84
2023/11/01 14:40:14;;;;;;;1.83;1.57;;;;;;;15.12;100.00;98583.31;6153719;23;20183;-84
2023/11/01 14:42:42;;;;;;;1.93;1.23;;;;;;;15.17;100.00;98577.91;6153966;23;20187;-85
2023/11/01 14:45:11;;;;;;;2.00;1.10;;;;;;;15.00;100.00;98582.81;6153455;23;20209;-81
2023/11/01 14:47:40;;;;;;;0.97;0.87;;;;;;;14.91;100.00;98579.88;6153357;23;20278;-81
2023/11/01 14:50:10;;;;;;;1.43;0.80;;;;;;;14.86;100.00;98574.50;6156136;23;20392;-80
2023/11/01 14:52:38;;;;;;;1.80;0.80;;;;;;;14.76;100.00;98569.13;6156079;23;20178;-81
2023/11/01 14:55:06;;;;;;;1.73;0.73;;;;;;;14.69;100.00;98570.50;6154614;23;20278;-80
2023/11/01 14:57:34;;;;;;;1.10;0.90;;;;;;;14.47;100.00;98568.88;6156098;23;20164;-80
2023/11/01 15:00:07;;;;;;;1.03;0.93;;;;;;;14.33;100.00;98561.56;6154991;23;20148;-80
2023/11/01 15:02:39;;;;;;;1.43;1.00;;;;;;;14.30;100.00;98562.09;6156051;23;20578;-80
2023/11/01 15:05:08;;;;;;;0.87;0.80;;;;;;;14.16;100.00;98558.34;6155440;23;20669;-80
2023/11/01 15:07:36;;;;;;;1.13;1.03;;;;;;;14.13;100.00;98559.69;6108273;23;20214;-80
2023/11/01 15:10:06;;;;;;;1.70;1.60;;;;;;;14.08;100.00;98551.59;6166958;23;20174;-80
2023/11/01 15:12:42;;;;;;;2.00;1.90;;;;;;;13.92;100.00;98547.25;6167747;23;20233;-80
2023/11/01 15:15:18;;;;;;;2.67;2.47;;;;;;;13.77;100.00;98556.13;6166890;23;20218;-80
2023/11/01 15:17:49;;;;;;;3.03;2.73;;;;;;;13.67;100.00;98551.50;6167737;23;20152;-80
2023/11/01 15:20:17;;;;;;;2.67;2.30;;;;;;;13.56;100.00;98539.13;6165807;23;20174;-80
2023/11/01 15:22:46;;;;;;;1.93;1.73;;;;;;;13.38;100.00;98539.59;6141816;23;20614;-80
2023/11/01 15:25:17;;;;;;;2.07;1.77;;;;;;;13.34;100.00;98538.53;6140329;23;20198;-80
2023/11/01 15:27:51;;;;;;;2.57;2.10;;;;;;;13.22;100.00;98535.22;6164421;23;20215;-80
2023/11/01 15:30:23;;;;;;;1.80;1.40;;;;;;;13.14;100.00;98530.34;6167185;23;20175;-80
2023/11/01 15:32:51;;;;;;;2.23;1.57;;;;;;;12.98;100.00;98523.25;6165994;23;20166;-80
2023/11/01 15:35:19;;;;;;;1.43;1.33;;;;;;;12.93;100.00;98521.34;6167507;23;20171;-80
2023/11/01 15:37:47;;;;;;;1.70;1.40;;;;;;;12.93;100.00;98515.16;6167194;23;20162;-79
2023/11/01 15:40:15;;;;;;;4.43;2.00;;;;;;;12.78;100.00;98513.22;6167475;23;20174;-80
2023/11/01 15:42:43;;;;;;;3.60;2.17;;;;;;;12.73;100.00;98510.50;6168013;23;20208;-80
2023/11/01 15:45:20;;;;;;;3.87;1.70;;;;;;;12.67;100.00;98500.78;6143751;23;20236;-79
2023/11/01 15:47:50;;;;;;;2.30;1.30;;;;;;;12.67;100.00;98498.09;6144873;23;20245;-80
2023/11/01 15:50:22;;;;;;;1.20;1.00;;;;;;;12.55;100.00;98498.28;6167101;23;20176;-79
2023/11/01 15:52:58;;;;;;;4.97;4.47;;;;;;;12.46;100.00;98499.84;6167959;23;20169;-79
2023/11/01 15:55:27;;;;;;;2.53;1.60;;;;;;;12.49;100.00;98488.59;6143427;23;20165;-79
2023/11/01 15:57:55;;;;;;;1.67;1.43;;;;;;;12.36;100.00;98492.53;6166739;23;20197;-80
2023/11/01 16:00:24;;;;;;;1.87;1.70;;;;;;;12.32;100.00;98482.56;6169193;23;20169;-80
2023/11/01 16:02:55;;;;;;;1.60;1.50;;;;;;;12.24;100.00;98489.22;6168535;23;20167;-80
2023/11/01 16:05:25;;;;;;;2.57;1.90;;;;;;;12.26;100.00;98479.06;6143821;23;20177;-80
2023/11/01 16:07:54;;;;;;;3.17;1.90;;;;;;;12.22;100.00;98475.25;6168254;23;20216;-80
2023/11/01 16:10:23;;;;;;;2.07;1.80;;;;;;;12.18;100.00;98476.81;6165914;23;20607;-79
2023/11/01 16:12:52;;;;;;;2.00;1.57;;;;;;;12.06;100.00;98475.38;6166712;23;20691;-79
2023/11/01 16:15:23;;;;;;;1.93;1.60;;;;;;;12.00;100.00;98468.34;6140686;23;20195;-80
2023/11/01 16:17:52;;;;;;;2.30;1.50;;;;;;;11.89;100.00;98464.81;6165485;23;20164;-79
2023/11/01 16:20:21;;;;;;;3.00;1.80;;;;;;;11.93;100.00;98455.16;6115788;23;20165;-79
2023/11/01 16:22:51;;;;;;;2.70;1.70;;;;;;;11.99;100.00;98453.34;6170554;23;20183;-81
2023/11/01 16:25:20;;;;;;;2.80;2.30;;;;;;;11.81;100.00;98459.88;6165826;23;20173;-80
2023/11/01 16:27:50;;;;;;;3.95;3.35;;;;;;;11.78;100.00;98455.84;6141272;23;20471;-82
2023/11/01 16:30:24;;;;;;;3.73;2.23;;;;;;;11.73;100.00;98463.03;6142800;23;20164;-79
2023/11/01 16:32:54;;;;;;;3.23;2.50;;;;;;;11.68;100.00;98457.59;6166357;23;20151;-80
2023/11/01 16:35:25;;;;;;;2.30;1.87;;;;;;;11.75;100.00;98456.38;6166667;23;20701;-81
2023/11/01 16:37:55;;;;;;;1.50;1.40;;;;;;;11.70;100.00;98453.59;6165996;23;20172;-80
2023/11/01 16:40:24;;;;;;;2.20;1.53;;;;;;;11.69;100.00;98454.66;6165766;23;20173;-79
2023/11/01 16:42:56;;;;;;;3.87;2.77;;;;;;;11.64;100.00;98456.50;6167883;23;20191;-80
2023/11/01 16:45:24;;;;;;;3.03;2.37;;;;;;;11.60;100.00;98450.81;6166222;23;20195;-80
2023/11/01 16:47:53;;;;;;;2.23;1.83;;;;;;;11.72;100.00;98453.34;6164790;23;20184;-80
2023/11/01 16:50:31;;;;;;;2.90;2.30;;;;;;;11.58;100.00;98458.31;6164823;23;20172;-80
2023/11/01 16:53:03;;;;;;;3.57;2.00;;;;;;;11.57;100.00;98450.53;6165121;23;20178;-80
2023/11/01 16:55:36;;;;;;;4.73;3.77;;;;;;;11.61;100.00;98457.00;6163393;23;20165;-80
2023/11/01 16:58:07;;;;;;;2.43;2.10;;;;;;;11.54;100.00;98451.03;6165441;23;20162;-79
2023/11/01 17:00:37;;;;;;;2.67;1.80;;;;;;;11.43;100.00;98452.81;6163724;23;20614;-80
2023/11/01 17:03:08;;;;;;;2.00;1.80;;;;;;;11.49;100.00;98449.09;6140418;23;20151;-79
2023/11/01 17:05:40;;;;;;;3.33;1.93;;;;;;;11.52;100.00;98448.63;6164075;23;20151;-80
2023/11/01 17:08:13;;;;;;;3.07;2.20;;;;;;;11.55;100.00;98445.41;6138537;23;20270;-79
2023/11/01 17:10:42;;;;;;;2.73;2.10;;;;;;;11.49;100.00;98439.19;6162253;23;20625;-79
2023/11/01 17:13:26;;;;;;;3.17;2.60;;;;;;;11.51;100.00;98436.25;6163978;23;20201;-79
2023/11/01 17:15:55;;;;;;;2.77;1.90;;;;;;;11.54;100.00;98437.63;6162248;23;20145;-80
2023/11/01 17:18:24;;;;;;;2.20;1.87;;;;;;;11.67;100.00;98429.94;6164407;23;20224;-82
2023/11/01 17:20:54;;;;;;;4.13;2.43;;;;;;;11.57;100.00;98434.44;6164665;23;20168;-79
2023/11/01 17:23:25;;;;;;;3.77;1.60;;;;;;;11.54;100.00;98433.06;6164323;23;20206;-80
2023/11/01 17:25:56;;;;;;;4.03;2.10;;;;;;;11.55;100.00;98425.81;6164775;23;20215;-80
2023/11/01 17:28:34;;;;;;;2.43;2.23;;;;;;;11.55;100.00;98425.81;6164008;23;20196;-79
2023/11/01 17:31:49;;;;;;;3.30;2.07;;;;;;;11.59;100.00;98419.69;6104683;23;20238;-80
2023/11/01 17:34:31;;;;;;;4.00;2.27;;;;;;;11.60;100.00;98412.47;6081905;23;20158;-80
2023/11/01 17:37:03;;;;;;;2.47;2.13;;;;;;;11.59;100.00;98418.88;6104877;23;20256;-80
2023/11/01 17:39:40;;;;;;;2.47;1.80;;;;;;;11.54;100.00;98418.84;6081381;23;20233;-80
2023/11/01 17:42:15;;;;;;;3.57;2.30;;;;;;;11.53;100.00;98409.16;6104090;23;20256;-80
2023/11/01 17:44:44;;;;;;;2.95;1.98;;;;;;;11.51;100.00;98408.63;6032998;23;1678111;-80
2023/11/01 17:47:24;;;;;;;1.93;1.73;;;;;;;11.40;100.00;98408.53;6105550;23;20180;-80
2023/11/01 17:49:55;;;;;;;2.23;1.73;;;;;;;11.46;100.00;98409.41;6146001;23;20194;-80
2023/11/01 17:52:31;;;;;;;3.53;1.73;;;;;;;11.38;100.00;98412.53;6165008;23;20172;-80
2023/11/01 17:55:01;;;;;;;3.13;1.87;;;;;;;11.35;100.00;98410.34;6165136;23;20195;-81
2023/11/01 17:57:41;;;;;;;2.70;2.27;;;;;;;11.29;100.00;98400.66;6162206;23;20172;-80
2023/11/01 18:00:18;;;;;;;2.67;1.70;;;;;;;11.45;100.00;98394.34;6165798;23;20170;-80
2023/11/01 18:03:14;;;;;;;2.67;1.77;;;;;;;11.40;100.00;98389.75;6140942;23;20204;-81
2023/11/01 18:05:46;;;;;;;2.53;1.70;;;;;;;11.38;100.00;98389.19;6163873;23;20192;-80
2023/11/01 18:08:24;;;;;;;2.43;1.77;;;;;;;11.45;100.00;98381.75;6165395;23;20263;-80
2023/11/01 18:10:55;;;;;;;1.93;1.77;;;;;;;11.39;100.00;98385.44;6164480;23;20171;-80
2023/11/01 18:13:40;;;;;;;3.60;1.67;;;;;;;11.43;100.00;98381.19;6163673;23;20621;-80
2023/11/01 18:16:17;;;;;;;2.53;1.73;;;;;;;11.38;100.00;98366.97;6166430;23;20171;-80
2023/11/01 18:18:56;;;;;;;4.33;2.03;;;;;;;11.44;100.00;98372.09;6164802;23;20159;-80
2023/11/01 18:21:36;;;;;;;4.20;2.40;;;;;;;11.46;100.00;98378.03;6140581;23;20170;-80
2023/11/01 18:24:14;;;;;;;3.50;2.07;;;;;;;11.38;100.00;98369.63;6142410;23;20164;-80
2023/11/01 18:26:49;;;;;;;3.47;2.33;;;;;;;11.37;100.00;98365.34;6163771;23;20167;-80
2023/11/01 18:29:22;;;;;;;2.90;2.50;;;;;;;11.28;100.00;98365.00;6140565;23;20219;-80
2023/11/01 18:31:52;;;;;;;2.97;2.27;;;;;;;11.29;100.00;98360.44;6164657;23;20157;-80
2023/11/01 18:34:21;;;;;;;2.30;2.00;;;;;;;11.28;100.00;98361.50;6164379;23;20168;-80
2023/11/01 18:36:52;;;;;;;2.17;2.00;;;;;;;11.26;100.00;98368.97;6164851;23;20175;-80
2023/11/01 18:39:27;;;;;;;2.47;1.73;;;;;;;11.22;100.00;98370.53;6165928;23;20222;-81
2023/11/01 18:42:26;;;;;;;2.77;1.93;;;;;;;11.17;100.00;98365.13;6166659;23;20218;-81
2023/11/01 18:44:58;;;;;;;5.40;4.77;;;;;;;11.13;100.00;98364.84;6140166;23;20292;-81
2023/11/01 18:47:42;;;;;;;4.50;3.17;;;;;;;11.13;100.00;98367.53;6165881;23;20174;-81
2023/11/01 18:50:14;;;;;;;2.37;2.17;;;;;;;11.13;100.00;98362.16;6164344;23;20203;-80
2023/11/01 18:52:43;;;;;;;3.40;2.80;;;;;;;11.12;100.00;98360.53;6165774;23;20152;-81
2023/11/01 18:55:12;;;;;;;5.30;3.07;;;;;;;11.23;100.00;98370.31;6166720;23;20198;-81
2023/11/01 18:57:42;;;;;;;6.00;4.47;;;;;;;11.19;100.00;98365.69;6165996;23;20179;-81
2023/11/01 19:00:24;;;;;;;4.50;3.23;;;;;;;11.16;100.00;98356.28;6164343;23;20160;-81
2023/11/01 19:03:06;;;;;;;3.10;2.50;;;;;;;11.15;100.00;98353.88;6165628;23;20159;-81
2023/11/01 19:05:37;;;;;;;2.27;1.97;;;;;;;11.11;100.00;98358.91;6141720;23;20171;-81
2023/11/01 19:08:06;;;;;;;2.00;1.80;;;;;;;11.06;100.00;98350.03;6140165;23;20167;-81
2023/11/01 19:10:36;;;;;;;2.93;2.30;;;;;;;11.07;100.00;98343.59;6165335;23;20238;-81
2023/11/01 19:13:07;;;;;;;2.73;2.10;;;;;;;11.12;100.00;98341.78;6115454;23;20633;-81
2023/11/01 19:15:55;;;;;;;2.87;2.00;;;;;;;11.07;100.00;98344.41;6165284;23;20194;-81
2023/11/01 19:18:23;;;;;;;3.07;2.60;;;;;;;10.97;100.00;98338.94;6164988;23;20238;-81
2023/11/01 19:20:55;;;;;;;3.23;2.37;;;;;;;10.98;100.00;98338.69;6140716;23;20163;-81
2023/11/01 19:23:25;;;;;;;3.47;2.47;;;;;;;10.99;100.00;98328.78;6164183;23;20399;-81
2023/11/01 19:26:02;;;;;;;6.50;4.57;;;;;;;11.01;100.00;98338.19;6140926;23;20144;-81
2023/11/01 19:28:31;;;;;;;3.67;2.93;;;;;;;11.02;100.00;98339.81;6162765;23;20195;-80
2023/11/01 19:31:02;;;;;;;2.60;2.00;;;;;;;10.98;100.00;98346.72;6162989;23;20147;-80
2023/11/01 19:33:39;;;;;;;2.73;1.90;;;;;;;11.10;100.00;98345.78;6165163;23;20707;-80
2023/11/01 19:36:07;;;;;;;3.17;2.50;;;;;;;11.07;100.00;98344.41;6163692;23;20167;-81
2023/11/01 19:38:42;;;;;;;2.87;1.93;;;;;;;11.16;100.00;98340.19;6164740;23;20171;-81
2023/11/01 19:41:13;;;;;;;3.53;2.17;;;;;;;11.09;100.00;98338.78;6165161;23;20190;-81
2023/11/01 19:43:41;;;;;;;3.27;2.97;;;;;;;11.01;100.00;98338.19;6163739;23;20195;-81
2023/11/01 19:46:12;;;;;;;4.47;2.33;;;;;;;11.00;100.00;98336.59;6165233;23;20203;-80
2023/11/01 19:48:44;;;;;;;4.30;3.10;;;;;;;10.96;100.00;98330.09;6166005;23;20185;-81
2023/11/01 19:51:13;;;;;;;4.10;2.43;;;;;;;10.91;100.00;98332.75;6165313;23;20173;-81
2023/11/01 19:53:48;;;;;;;3.37;2.37;;;;;;;10.86;100.00;98316.63;6142226;23;20164;-81
2023/11/01 19:56:23;;;;;;;3.77;2.33;;;;;;;10.85;100.00;98320.34;6165597;23;20167;-81
2023/11/01 19:58:52;;;;;;;3.87;2.20;;;;;;;10.82;100.00;98312.81;6140728;23;20168;-81
2023/11/01 20:01:24;;;;;;;2.93;2.40;;;;;;;10.80;100.00;98317.63;6140881;23;20175;-81
2023/11/01 20:03:54;;;;;;;4.60;3.20;;;;;;;10.81;100.00;98305.84;6138917;23;20242;-81
2023/11/01 20:06:22;;;;;;;2.77;2.20;;;;;;;10.83;100.00;98313.59;6139632;23;20239;-81
2023/11/01 20:08:51;;;;;;;3.60;2.17;;;;;;;10.83;100.00;98309.06;6165811;23;20215;-81
2023/11/01 20:11:25;;;;;;;2.60;2.40;;;;;;;10.85;100.00;98309.63;6139985;23;20155;-81
2023/11/01 20:13:55;;;;;;;2.37;2.10;;;;;;;10.91;100.00;98300.59;6164244;23;20172;-81
2023/11/01 20:16:22;;;;;;;3.87;2.13;;;;;;;10.86;100.00;98302.41;6114603;23;20167;-81
2023/11/01 20:18:58;;;;;;;3.17;2.20;;;;;;;10.82;100.00;98302.09;6164549;23;20143;-81
2023/11/01 20:24:52;;;;;;;8.10;6.20;;;;;;;10.89;100.00;98294.66;6165108;23;20198;-81
2023/11/01 20:27:24;;;;;;;5.63;4.50;;;;;;;11.01;100.00;98284.56;6164176;23;20484;-81
2023/11/01 20:29:53;;;;;;;4.90;3.33;;;;;;;11.09;100.00;98272.59;6137321;23;20195;-81
2023/11/01 20:32:28;;;;;;;3.43;2.20;;;;;;;11.04;100.00;98272.56;6163991;23;20191;-81
2023/11/01 20:34:56;;;;;;;2.20;2.00;;;;;;;11.02;100.00;98267.44;6138267;23;20173;-80
2023/11/01 20:37:35;;;;;;;2.97;1.70;;;;;;;10.95;100.00;98269.53;6140988;23;20144;-81
2023/11/01 20:40:07;;;;;;;2.67;1.73;;;;;;;10.94;100.00;98267.91;6164832;23;20199;-81
2023/11/01 20:42:38;;;;;;;2.60;1.47;;;;;;;11.02;100.00;98259.41;6137755;23;20167;-81
2023/11/01 20:45:18;;;;;;;2.37;1.70;;;;;;;11.12;100.00;98261.34;6144197;23;20195;-81
2023/11/01 20:47:46;;;;;;;2.80;1.80;;;;;;;11.07;100.00;98255.94;6164691;23;20159;-81
2023/11/01 20:50:15;;;;;;;2.10;1.43;;;;;;;11.11;100.00;98254.38;6164839;23;20664;-80
2023/11/01 20:52:42;;;;;;;2.57;1.83;;;;;;;11.11;100.00;98249.00;6139361;23;20172;-81
2023/11/01 20:55:13;;;;;;;2.87;1.70;;;;;;;11.19;100.00;98253.91;6164689;23;20172;-81
2023/11/01 20:57:43;;;;;;;2.30;1.70;;;;;;;11.14;100.00;98248.53;6165593;23;20168;-81
2023/11/01 21:00:16;;;;;;;2.40;1.50;;;;;;;11.14;100.00;98245.84;6165119;23;20220;-80
2023/11/01 21:02:49;;;;;;;2.17;1.60;;;;;;;11.15;100.00;98238.59;6163061;23;20178;-81
2023/11/01 21:05:25;;;;;;;3.60;1.70;;;;;;;11.16;100.00;98243.69;6140489;23;20164;-81
2023/11/01 21:08:02;;;;;;;3.63;1.90;;;;;;;11.09;100.00;98234.25;6165878;23;20171;-81
2023/11/01 21:10:31;;;;;;;2.80;1.90;;;;;;;11.05;100.00;98228.63;6140866;23;20198;-81
2023/11/01 21:13:04;;;;;;;4.40;2.50;;;;;;;11.02;100.00;98235.28;6166832;23;20495;-81
2023/11/01 21:15:45;;;;;;;4.37;2.03;;;;;;;10.98;100.00;98217.28;6164460;23;20608;-81
2023/11/01 21:18:15;;;;;;;4.67;2.23;;;;;;;10.95;100.00;98220.50;6165268;23;20160;-81
2023/11/01 21:21:00;;;;;;;5.03;2.80;;;;;;;10.91;100.00;98212.16;6164782;23;20175;-81
2023/11/01 21:23:36;;;;;;;6.37;3.00;;;;;;;10.91;100.00;98219.38;6166984;23;20152;-81
2023/11/01 21:26:05;;;;;;;2.80;2.17;;;;;;;10.90;100.00;98217.75;6165573;23;20176;-81
2023/11/01 21:28:34;;;;;;;3.00;2.03;;;;;;;10.87;100.00;98216.38;6166693;23;20164;-81
2023/11/01 21:31:07;;;;;;;4.23;2.40;;;;;;;10.82;100.00;98221.72;6166119;23;20168;-81
2023/11/01 21:33:35;;;;;;;2.60;2.23;;;;;;;10.78;100.00;98215.25;6162381;23;20168;-81
2023/11/01 21:36:04;;;;;;;4.37;2.03;;;;;;;10.74;100.00;98218.69;6140773;23;20602;-81